Time;durP1;ratioP1;P1;durP2;ratioP2;P2;SDS_P1;SDS_P2;PMS_P1;PMS_P2;Temp;Humidity;BMP_temperature;BMP_pressure;BME280_temperature;BME280_humidity;BME280_pressure;Samples;Min_cycle;Max_cycle;Signal;HPM_P1;HPM_P2
2022/08/07 04:03:22;;;;;;;4.38;2.00;;;17.80;99.90;;;;;;4862635;23;88347;-70
2022/08/07 04:05:48;;;;;;;3.58;2.30;;;17.70;99.90;;;;;;4823779;29;89012;-71
2022/08/07 04:08:15;;;;;;;3.00;1.98;;;17.70;99.90;;;;;;4820027;29;87197;-73
2022/08/07 04:10:42;;;;;;;3.50;1.98;;;17.70;99.90;;;;;;4822668;29;86983;-73
2022/08/07 04:13:12;;;;;;;4.13;2.28;;;17.80;99.90;;;;;;4822864;29;87046;-74
2022/08/07 04:15:38;;;;;;;6.03;2.55;;;17.90;99.90;;;;;;4821037;29;87819;-70
2022/08/07 04:18:04;;;;;;;3.88;1.92;;;17.90;99.90;;;;;;4822358;29;86992;-72
2022/08/07 04:20:30;;;;;;;3.55;2.30;;;18.00;99.90;;;;;;4821363;29;87036;-70
2022/08/07 04:22:57;;;;;;;5.05;2.20;;;17.90;99.90;;;;;;4825008;29;86331;-73
2022/08/07 04:25:24;;;;;;;4.05;2.38;;;17.90;99.90;;;;;;4820239;29;87215;-71
2022/08/07 04:27:49;;;;;;;5.55;2.40;;;18.10;99.90;;;;;;4812358;29;88085;-71
2022/08/07 04:30:16;;;;;;;4.45;2.25;;;18.10;99.90;;;;;;4824679;29;88176;-73
2022/08/07 04:32:42;;;;;;;3.38;1.90;;;18.10;99.90;;;;;;4827280;29;86604;-71
2022/08/07 04:35:08;;;;;;;4.18;2.22;;;18.10;99.90;;;;;;4826242;29;87077;-71
2022/08/07 04:37:35;;;;;;;3.40;2.20;;;18.20;99.90;;;;;;4824599;29;89099;-71
2022/08/07 04:40:02;;;;;;;4.00;2.35;;;18.20;99.90;;;;;;4827023;29;86969;-71
2022/08/07 04:42:31;;;;;;;4.03;2.42;;;18.30;99.90;;;;;;4826682;29;87538;-71
2022/08/07 04:45:02;;;;;;;3.85;2.13;;;18.10;99.90;;;;;;4825926;29;86630;-72
2022/08/07 04:47:40;;;;;;;4.25;2.28;;;18.00;99.90;;;;;;4826475;29;87123;-71
2022/08/07 04:50:16;;;;;;;6.57;2.30;;;17.90;99.90;;;;;;4826603;29;87325;-70
2022/08/07 04:52:50;;;;;;;4.47;1.83;;;18.00;99.90;;;;;;4825523;29;86977;-72
2022/08/07 04:55:39;;;;;;;3.92;2.50;;;18.10;99.90;;;;;;4825200;29;89088;-72
2022/08/07 04:58:36;;;;;;;5.18;2.38;;;18.20;99.90;;;;;;4816401;29;87582;-72
2022/08/07 05:01:31;;;;;;;3.65;2.28;;;18.30;99.90;;;;;;4815072;29;86780;-72
2022/08/07 05:04:07;;;;;;;3.55;2.28;;;18.20;99.90;;;;;;4819166;29;87038;-71
2022/08/07 05:06:41;;;;;;;3.65;2.20;;;18.30;99.90;;;;;;4822815;29;87034;-71
2022/08/07 05:09:39;;;;;;;3.95;2.20;;;18.40;99.90;;;;;;4825321;29;87031;-72
2022/08/07 05:12:06;;;;;;;4.93;2.40;;;18.50;99.90;;;;;;4826078;29;87441;-69
2022/08/07 05:14:37;;;;;;;3.35;2.15;;;18.50;99.90;;;;;;4824282;29;86443;-73
2022/08/07 05:17:06;;;;;;;4.18;2.17;;;18.50;99.90;;;;;;4822196;29;87372;-76
2022/08/07 05:19:40;;;;;;;5.05;2.63;;;18.50;99.90;;;;;;4822718;29;87063;-72
2022/08/07 05:22:08;;;;;;;4.35;2.17;;;18.60;99.90;;;;;;4821306;29;87889;-72
2022/08/07 05:24:36;;;;;;;4.95;2.35;;;18.70;99.90;;;;;;4824989;29;87118;-71
2022/08/07 05:27:04;;;;;;;3.72;2.25;;;18.80;99.90;;;;;;4823867;29;88361;-71
2022/08/07 05:29:33;;;;;;;3.30;2.10;;;18.80;99.90;;;;;;4825709;29;87351;-71
2022/08/07 05:32:01;;;;;;;3.22;2.03;;;18.80;99.90;;;;;;4826214;29;87065;-71
2022/08/07 05:34:27;;;;;;;3.42;2.30;;;18.80;99.90;;;;;;4825768;29;87113;-71
2022/08/07 05:36:55;;;;;;;4.13;2.63;;;18.90;99.90;;;;;;4824357;29;87717;-75
2022/08/07 05:39:22;;;;;;;4.05;2.40;;;19.00;99.90;;;;;;4826456;29;86153;-71
2022/08/07 05:41:49;;;;;;;4.40;2.20;;;19.00;99.90;;;;;;4820423;29;87079;-71
2022/08/07 05:44:17;;;;;;;3.92;2.28;;;19.10;99.90;;;;;;4823015;29;87117;-71
2022/08/07 05:46:44;;;;;;;4.07;2.33;;;19.10;99.90;;;;;;4823139;29;88108;-72
2022/08/07 05:49:11;;;;;;;4.45;2.50;;;19.20;99.90;;;;;;4822808;29;87947;-72
2022/08/07 05:51:37;;;;;;;5.40;2.70;;;19.20;99.90;;;;;;4826678;29;86903;-72
2022/08/07 05:54:03;;;;;;;3.70;2.58;;;19.30;99.90;;;;;;4822105;29;87195;-75
2022/08/07 05:56:32;;;;;;;4.47;2.63;;;19.30;99.90;;;;;;4820287;29;87225;-73
2022/08/07 05:59:00;;;;;;;5.53;3.42;;;19.40;99.90;;;;;;4824226;29;87111;-72
2022/08/07 06:01:27;;;;;;;6.18;3.17;;;19.30;99.90;;;;;;4823080;29;87432;-71
2022/08/07 06:03:55;;;;;;;5.22;3.33;;;19.20;99.90;;;;;;4823504;29;86761;-72
2022/08/07 06:06:23;;;;;;;4.93;3.47;;;19.20;99.90;;;;;;4821849;29;87673;-71
2022/08/07 06:08:49;;;;;;;5.28;3.30;;;19.20;99.90;;;;;;4823081;29;87250;-72
2022/08/07 06:11:16;;;;;;;7.90;3.03;;;19.20;99.90;;;;;;4825176;29;88319;-73
2022/08/07 06:13:42;;;;;;;5.72;3.67;;;19.30;99.90;;;;;;4825383;29;86805;-71
2022/08/07 06:16:08;;;;;;;6.00;3.20;;;19.50;99.90;;;;;;4821629;29;89217;-73
2022/08/07 06:18:35;;;;;;;4.57;2.97;;;19.50;99.90;;;;;;4823013;29;87014;-72
2022/08/07 06:21:03;;;;;;;4.38;3.00;;;19.50;99.90;;;;;;4822101;29;87077;-69
2022/08/07 06:23:30;;;;;;;6.95;3.78;;;19.50;99.90;;;;;;4823152;29;87148;-70
2022/08/07 06:25:57;;;;;;;5.43;3.50;;;19.60;99.90;;;;;;4823970;29;87209;-73
2022/08/07 06:28:23;;;;;;;5.47;3.42;;;19.50;99.90;;;;;;4824376;29;88059;-72
2022/08/07 06:30:49;;;;;;;6.18;3.25;;;19.60;99.90;;;;;;4825303;29;87057;-71
2022/08/07 06:33:15;;;;;;;7.55;3.60;;;19.60;99.90;;;;;;4821888;29;87232;-71
2022/08/07 06:35:41;;;;;;;5.80;3.33;;;19.60;99.90;;;;;;4823800;29;88208;-72
2022/08/07 06:38:07;;;;;;;7.18;3.63;;;19.80;99.90;;;;;;4819705;29;87798;-74
2022/08/07 06:40:46;;;;;;;7.55;2.85;;;19.90;99.90;;;;;;4823192;29;87140;-72
2022/08/07 06:43:14;;;;;;;6.20;3.50;;;19.90;99.90;;;;;;4818617;29;87007;-74
2022/08/07 06:45:40;;;;;;;6.15;3.65;;;19.90;99.90;;;;;;4818750;29;87316;-73
2022/08/07 06:48:06;;;;;;;5.47;3.33;;;20.10;99.90;;;;;;4821476;29;87317;-74
2022/08/07 06:50:35;;;;;;;7.72;3.25;;;20.40;99.90;;;;;;4822944;29;86955;-74
2022/08/07 06:53:03;;;;;;;6.47;3.20;;;20.50;99.90;;;;;;4822649;29;86334;-71
2022/08/07 06:55:31;;;;;;;7.10;3.17;;;20.60;99.90;;;;;;4819261;29;87357;-72
2022/08/07 06:58:00;;;;;;;5.68;3.22;;;20.70;99.90;;;;;;4819837;29;87166;-72
2022/08/07 07:00:31;;;;;;;5.65;3.55;;;21.00;99.90;;;;;;4819899;29;87902;-72
2022/08/07 07:02:57;;;;;;;4.80;3.08;;;21.10;99.90;;;;;;4821209;29;87242;-71
2022/08/07 07:05:23;;;;;;;5.53;3.05;;;21.20;99.90;;;;;;4816989;29;87152;-74
2022/08/07 07:07:49;;;;;;;5.82;2.70;;;21.00;99.90;;;;;;4823795;29;86964;-74
2022/08/07 07:10:25;;;;;;;8.88;3.25;;;21.10;98.60;;;;;;4818813;29;87065;-69
2022/08/07 07:12:54;;;;;;;4.32;1.65;;;21.20;98.20;;;;;;4821654;29;86980;-71
2022/08/07 07:15:30;;;;;;;7.10;3.00;;;21.10;97.40;;;;;;4823137;29;88137;-74
2022/08/07 07:18:11;;;;;;;6.15;3.85;;;21.00;97.70;;;;;;4821923;29;87040;-72
2022/08/07 07:20:42;;;;;;;5.70;3.60;;;21.00;98.60;;;;;;4821146;29;87114;-72
2022/08/07 07:23:10;;;;;;;4.53;3.00;;;21.20;98.20;;;;;;4821402;29;86995;-71
2022/08/07 07:25:39;;;;;;;6.00;2.95;;;21.20;98.00;;;;;;4818756;29;89202;-70
2022/08/07 07:28:13;;;;;;;5.70;3.13;;;21.30;97.50;;;;;;4818090;29;89422;-72
2022/08/07 07:30:44;;;;;;;5.00;3.15;;;21.20;97.70;;;;;;4821638;29;87527;-72
2022/08/07 07:33:13;;;;;;;5.78;3.17;;;21.30;97.10;;;;;;4820193;29;87129;-72
2022/08/07 07:35:45;;;;;;;4.93;3.17;;;21.40;96.60;;;;;;4819455;29;87753;-73
2022/08/07 07:38:12;;;;;;;6.45;3.53;;;21.50;96.40;;;;;;4820130;29;87023;-71
2022/08/07 07:40:40;;;;;;;5.00;3.08;;;21.40;96.40;;;;;;4820606;29;88025;-70
2022/08/07 07:43:07;;;;;;;7.22;3.13;;;21.30;96.60;;;;;;4818542;29;86236;-73
2022/08/07 07:45:33;;;;;;;5.07;2.97;;;21.20;96.50;;;;;;4819611;29;87214;-75
2022/08/07 07:48:00;;;;;;;5.25;2.67;;;21.20;96.70;;;;;;4821636;29;87206;-71
2022/08/07 07:50:28;;;;;;;5.10;2.80;;;21.30;96.70;;;;;;4821829;29;87834;-72
2022/08/07 07:52:55;;;;;;;5.47;2.92;;;21.20;97.00;;;;;;4820931;29;87279;-72
2022/08/07 07:55:22;;;;;;;6.75;2.85;;;21.30;96.80;;;;;;4814803;29;87313;-71
2022/08/07 07:57:51;;;;;;;6.40;3.20;;;21.50;96.30;;;;;;4826215;29;87764;-71
2022/08/07 08:00:17;;;;;;;6.47;3.38;;;21.50;95.70;;;;;;4827492;29;87015;-72
2022/08/07 08:02:45;;;;;;;5.60;3.22;;;21.30;95.80;;;;;;4824133;29;87369;-71
2022/08/07 08:05:12;;;;;;;4.95;2.72;;;21.20;96.20;;;;;;4825116;29;88728;-73
2022/08/07 08:07:39;;;;;;;4.28;2.83;;;21.40;96.70;;;;;;4826666;29;87639;-74
2022/08/07 08:10:07;;;;;;;5.82;3.20;;;21.80;95.30;;;;;;4823897;29;87455;-75
2022/08/07 08:12:34;;;;;;;5.15;2.75;;;21.80;94.40;;;;;;4823146;29;86902;-73
2022/08/07 08:15:01;;;;;;;5.15;2.95;;;21.70;94.50;;;;;;4824270;29;90084;-70
2022/08/07 08:17:28;;;;;;;6.88;2.72;;;21.70;94.70;;;;;;4825322;29;87832;-71
2022/08/07 08:20:07;;;;;;;5.88;2.90;;;21.90;94.60;;;;;;4828438;29;87003;-71
2022/08/07 08:28:23;;;;;;;3.95;2.22;;;22.20;92.90;;;;;;4828215;29;87218;-72
2022/08/07 08:30:53;;;;;;;4.90;2.50;;;22.20;92.90;;;;;;4820573;29;87406;-74
2022/08/07 08:33:21;;;;;;;3.97;2.78;;;22.20;92.60;;;;;;4824139;29;89014;-71
2022/08/07 08:35:49;;;;;;;3.20;2.08;;;22.10;92.30;;;;;;4827681;29;86878;-73
2022/08/07 08:38:17;;;;;;;3.40;1.65;;;22.20;92.40;;;;;;4824375;29;87621;-71
2022/08/07 08:40:55;;;;;;;3.33;1.85;;;22.30;92.70;;;;;;4820761;29;87989;-74
2022/08/07 08:43:32;;;;;;;3.40;2.20;;;22.50;91.90;;;;;;4820775;29;87160;-71
2022/08/07 08:46:08;;;;;;;2.60;1.60;;;22.80;91.50;;;;;;4822845;29;87326;-73
2022/08/07 08:49:00;;;;;;;4.30;2.17;;;22.90;90.90;;;;;;4822178;29;88213;-70
2022/08/07 08:51:40;;;;;;;2.88;1.77;;;22.70;91.50;;;;;;4817647;29;87168;-74
2022/08/07 08:54:23;;;;;;;3.40;1.83;;;22.90;91.50;;;;;;4822536;29;87120;-73
2022/08/07 08:56:51;;;;;;;3.22;2.20;;;23.20;90.60;;;;;;4822231;29;87794;-71
2022/08/07 08:59:53;;;;;;;3.30;1.88;;;23.30;90.10;;;;;;4822451;29;87051;-72
2022/08/07 09:02:37;;;;;;;3.55;2.13;;;23.40;90.00;;;;;;4805858;29;87301;-71
2022/08/07 09:05:11;;;;;;;3.97;2.08;;;23.40;88.20;;;;;;4818483;29;87478;-70
2022/08/07 09:07:58;;;;;;;3.97;1.90;;;23.60;89.60;;;;;;4819607;29;87965;-71
2022/08/07 09:10:51;;;;;;;3.58;1.80;;;23.80;88.30;;;;;;4816950;29;89410;-70
2022/08/07 09:14:00;;;;;;;3.30;1.75;;;24.00;84.30;;;;;;4818023;29;87145;-71
2022/08/07 09:16:53;;;;;;;3.17;2.03;;;23.90;85.70;;;;;;4817433;29;87047;-74
2022/08/07 09:19:33;;;;;;;2.20;1.40;;;23.90;85.10;;;;;;4818187;29;88436;-68
2022/08/07 09:22:21;;;;;;;2.80;1.45;;;24.10;83.40;;;;;;4819621;29;87668;-73
2022/08/07 09:25:19;;;;;;;4.22;1.33;;;24.30;81.90;;;;;;4818194;29;87065;-74
2022/08/07 09:27:59;;;;;;;2.92;1.58;;;24.30;79.20;;;;;;4815782;29;86342;-70
2022/08/07 09:30:36;;;;;;;4.32;1.33;;;24.40;79.00;;;;;;4818147;29;87228;-69
2022/08/07 09:33:23;;;;;;;2.70;1.10;;;24.30;79.10;;;;;;4818645;29;87488;-70
2022/08/07 09:36:19;;;;;;;4.85;1.42;;;24.20;79.30;;;;;;4816306;29;87649;-73
2022/08/07 09:38:58;;;;;;;2.72;1.27;;;24.40;77.90;;;;;;4816099;29;86976;-70
2022/08/07 09:42:15;;;;;;;2.40;0.98;;;24.30;79.10;;;;;;4817317;29;87347;-72
2022/08/07 09:44:48;;;;;;;1.75;0.85;;;24.20;77.20;;;;;;4777023;29;86923;-71
2022/08/07 09:47:36;;;;;;;2.85;1.35;;;24.10;78.40;;;;;;4817969;29;87105;-69
2022/08/07 09:50:19;;;;;;;1.95;0.98;;;24.20;78.50;;;;;;4821642;29;86981;-69
2022/08/07 09:53:06;;;;;;;3.42;0.90;;;24.50;76.10;;;;;;4823895;29;88585;-71
2022/08/07 09:56:03;;;;;;;2.58;1.23;;;24.30;79.10;;;;;;4822960;29;87047;-70
2022/08/07 09:58:59;;;;;;;2.72;1.10;;;24.10;77.90;;;;;;4819752;29;87406;-73
2022/08/07 10:02:07;;;;;;;8.65;1.05;;;24.00;77.30;;;;;;4823682;29;87058;-71
2022/08/07 10:04:57;;;;;;;2.97;1.48;;;24.00;77.60;;;;;;4815843;29;88642;-71
2022/08/07 10:07:56;;;;;;;4.90;1.20;;;23.80;77.40;;;;;;4823437;29;87667;-69
2022/08/07 10:10:39;;;;;;;2.63;0.80;;;23.50;78.30;;;;;;4810820;29;87207;-69
2022/08/07 10:13:25;;;;;;;2.25;0.93;;;23.70;78.50;;;;;;4816011;29;87676;-74
2022/08/07 10:16:11;;;;;;;4.28;0.80;;;24.00;77.70;;;;;;4818942;29;87096;-71
2022/08/07 10:19:11;;;;;;;5.32;1.40;;;23.80;77.40;;;;;;4818818;29;87642;-69
2022/08/07 10:21:53;;;;;;;6.70;1.05;;;24.20;77.90;;;;;;4816467;29;87091;-70
2022/08/07 10:24:49;;;;;;;2.72;0.85;;;24.40;77.80;;;;;;4812329;29;86914;-69
2022/08/07 10:27:42;;;;;;;2.88;1.10;;;24.50;76.50;;;;;;4821411;29;87226;-69
2022/08/07 10:30:16;;;;;;;2.35;1.02;;;24.60;75.30;;;;;;4818933;29;87090;-68
2022/08/07 10:33:14;;;;;;;2.20;1.38;;;24.60;75.00;;;;;;4814582;29;88093;-69
2022/08/07 10:35:58;;;;;;;2.05;0.85;;;24.70;75.40;;;;;;4800625;29;87135;-69
2022/08/07 10:38:33;;;;;;;2.65;1.02;;;24.80;74.70;;;;;;4823464;29;88733;-69
2022/08/07 10:41:26;;;;;;;6.28;1.63;;;25.10;74.20;;;;;;4817026;29;87433;-69
2022/08/07 10:44:10;;;;;;;2.00;1.00;;;25.10;73.30;;;;;;4822331;29;87431;-69
2022/08/07 10:46:50;;;;;;;2.35;1.00;;;25.00;71.50;;;;;;4824637;29;87412;-68
2022/08/07 10:49:38;;;;;;;2.35;0.70;;;24.90;71.90;;;;;;4818829;29;88204;-69
2022/08/07 10:52:19;;;;;;;3.72;0.90;;;24.80;72.70;;;;;;4822304;29;86505;-68
2022/08/07 10:55:01;;;;;;;2.63;1.27;;;25.00;71.90;;;;;;4823723;29;87132;-70
2022/08/07 10:57:38;;;;;;;1.63;0.93;;;25.10;74.30;;;;;;4817616;29;87998;-69
2022/08/07 11:00:08;;;;;;;2.78;1.15;;;25.10;72.40;;;;;;4820649;29;88569;-68
2022/08/07 11:02:52;;;;;;;2.00;1.00;;;25.20;72.80;;;;;;4819739;29;87158;-69
2022/08/07 11:05:47;;;;;;;2.03;1.00;;;25.40;71.00;;;;;;4821287;29;87146;-68
2022/08/07 11:08:30;;;;;;;3.25;1.02;;;25.20;73.50;;;;;;4808006;29;86653;-68
2022/08/07 11:11:28;;;;;;;3.55;0.95;;;25.30;71.50;;;;;;4819415;29;87020;-67
2022/08/07 11:14:11;;;;;;;2.45;1.15;;;25.30;72.30;;;;;;4805335;29;87059;-67
2022/08/07 11:16:51;;;;;;;2.60;0.88;;;25.40;70.80;;;;;;4821313;29;87022;-68
2022/08/07 11:19:37;;;;;;;2.53;0.88;;;25.60;71.00;;;;;;4818940;29;86442;-67
2022/08/07 11:22:38;;;;;;;2.50;1.23;;;25.60;70.00;;;;;;4820276;29;87210;-68
2022/08/07 11:25:18;;;;;;;2.00;1.10;;;25.80;71.20;;;;;;4818656;29;87022;-68
2022/08/07 11:27:44;;;;;;;1.65;0.90;;;26.00;68.90;;;;;;4815318;29;87985;-68
2022/08/07 11:30:16;;;;;;;2.17;0.98;;;26.10;69.20;;;;;;4819044;29;86941;-67
2022/08/07 11:32:54;;;;;;;1.40;0.85;;;26.10;69.30;;;;;;4816349;29;86912;-68
2022/08/07 11:35:27;;;;;;;1.52;0.70;;;26.40;66.50;;;;;;4819386;29;87380;-68
2022/08/07 11:38:30;;;;;;;2.28;1.20;;;26.20;67.90;;;;;;4819496;29;87173;-67
2022/08/07 11:40:57;;;;;;;2.08;1.02;;;26.40;68.50;;;;;;4816950;29;86875;-69
2022/08/07 11:43:45;;;;;;;2.47;0.80;;;26.80;67.30;;;;;;4820341;29;88352;-67
2022/08/07 11:46:30;;;;;;;1.90;0.95;;;27.20;63.70;;;;;;4820348;29;86500;-69
2022/08/07 11:49:09;;;;;;;2.22;1.55;;;26.80;65.20;;;;;;4812919;29;86950;-68
2022/08/07 11:52:12;;;;;;;2.40;1.00;;;26.50;64.30;;;;;;4820903;29;87135;-68
2022/08/07 11:55:00;;;;;;;2.15;1.10;;;26.50;66.60;;;;;;4818216;29;89782;-68
2022/08/07 11:57:33;;;;;;;1.85;0.95;;;26.50;65.20;;;;;;4818397;29;87926;-68
2022/08/07 12:00:10;;;;;;;1.90;1.00;;;26.70;64.60;;;;;;4817188;29;87027;-68
2022/08/07 12:02:59;;;;;;;1.60;0.80;;;26.50;65.90;;;;;;4816920;29;87091;-68
2022/08/07 12:06:02;;;;;;;2.47;1.05;;;26.50;65.70;;;;;;4819204;29;87300;-68
2022/08/07 12:08:57;;;;;;;2.35;1.00;;;26.70;63.30;;;;;;4813501;29;87804;-68
2022/08/07 12:11:30;;;;;;;2.75;1.23;;;26.80;65.30;;;;;;4815503;29;87174;-68
2022/08/07 12:14:17;;;;;;;1.27;0.85;;;27.00;64.50;;;;;;4817069;29;86943;-69
2022/08/07 12:16:50;;;;;;;1.63;1.00;;;27.10;63.90;;;;;;4817725;29;87188;-68
2022/08/07 12:19:44;;;;;;;2.33;0.95;;;27.10;63.60;;;;;;4817287;29;87154;-69
2022/08/07 12:22:34;;;;;;;2.42;1.00;;;26.80;64.80;;;;;;4818634;29;88129;-68
2022/08/07 12:25:51;;;;;;;5.43;1.05;;;26.50;63.40;;;;;;4808725;29;87280;-68
2022/08/07 12:28:22;;;;;;;2.58;0.93;;;26.20;65.60;;;;;;4812900;29;87278;-70
2022/08/07 12:30:54;;;;;;;1.70;0.82;;;26.30;66.30;;;;;;4813239;29;87437;-68
2022/08/07 12:33:25;;;;;;;1.83;0.80;;;26.30;64.80;;;;;;4810819;29;87377;-69
2022/08/07 12:35:53;;;;;;;2.13;0.80;;;26.10;66.10;;;;;;4818208;29;87133;-70
2022/08/07 12:38:21;;;;;;;2.35;1.00;;;25.90;68.00;;;;;;4817409;29;87308;-70
2022/08/07 12:40:49;;;;;;;1.92;1.10;;;26.00;66.50;;;;;;4817493;29;87376;-70
2022/08/07 12:43:19;;;;;;;1.80;1.10;;;25.60;66.90;;;;;;4821064;29;87168;-70
2022/08/07 12:46:05;;;;;;;1.67;0.80;;;25.50;66.40;;;;;;4823892;29;87347;-70
2022/08/07 12:48:52;;;;;;;4.47;1.00;;;25.40;66.10;;;;;;4821148;29;88181;-70
2022/08/07 12:51:22;;;;;;;1.50;0.90;;;25.20;68.30;;;;;;4820314;29;88884;-70
2022/08/07 12:53:59;;;;;;;2.58;1.00;;;25.40;68.50;;;;;;4822407;29;87050;-71
2022/08/07 12:56:33;;;;;;;2.28;1.08;;;25.60;66.80;;;;;;4817523;29;86942;-71
2022/08/07 12:59:02;;;;;;;3.40;1.25;;;25.90;67.50;;;;;;4820738;29;87490;-70
2022/08/07 13:01:34;;;;;;;9.23;1.27;;;26.20;66.40;;;;;;4817654;29;87181;-72
2022/08/07 13:04:00;;;;;;;2.45;1.02;;;26.50;65.10;;;;;;4821225;29;87517;-71
2022/08/07 13:06:47;;;;;;;2.72;1.10;;;26.30;67.00;;;;;;4822693;29;86158;-70
2022/08/07 13:09:30;;;;;;;5.88;0.88;;;26.10;65.30;;;;;;4822638;29;87472;-71
2022/08/07 13:12:25;;;;;;;1.75;0.70;;;26.10;66.00;;;;;;4815865;29;87061;-70
2022/08/07 13:15:05;;;;;;;3.85;1.08;;;26.40;66.00;;;;;;4821267;29;88073;-70
2022/08/07 13:17:34;;;;;;;1.77;0.98;;;26.40;65.80;;;;;;4821976;29;87098;-70
2022/08/07 13:20:08;;;;;;;2.03;1.08;;;26.50;65.00;;;;;;4822853;29;87078;-71
2022/08/07 13:22:45;;;;;;;6.18;1.27;;;26.40;65.50;;;;;;4817650;29;88224;-71
2022/08/07 13:25:18;;;;;;;3.55;1.10;;;26.10;66.10;;;;;;4816512;29;87681;-73
2022/08/07 13:27:55;;;;;;;2.35;1.10;;;25.70;66.80;;;;;;4819201;29;87085;-71
2022/08/07 13:30:22;;;;;;;2.45;0.82;;;25.90;68.20;;;;;;4813462;29;87808;-71
2022/08/07 13:33:14;;;;;;;2.53;1.23;;;25.90;67.00;;;;;;4821912;29;87526;-71
2022/08/07 13:35:53;;;;;;;2.70;1.00;;;25.80;67.70;;;;;;4810264;29;87036;-71
2022/08/07 13:38:29;;;;;;;1.83;1.00;;;26.00;66.70;;;;;;4816275;29;86852;-73
2022/08/07 13:41:24;;;;;;;3.03;1.23;;;25.80;67.60;;;;;;4818528;29;88098;-71
2022/08/07 13:43:53;;;;;;;2.22;1.25;;;25.50;68.10;;;;;;4817465;29;87942;-71
2022/08/07 13:46:21;;;;;;;1.95;1.05;;;25.30;68.60;;;;;;4820265;29;87089;-71
2022/08/07 13:48:53;;;;;;;2.75;1.38;;;25.30;68.80;;;;;;4820771;29;87105;-72
2022/08/07 13:51:20;;;;;;;7.45;1.08;;;25.10;68.90;;;;;;4819830;29;88614;-71
2022/08/07 13:53:52;;;;;;;1.95;1.13;;;25.00;70.00;;;;;;4819619;29;87108;-70
2022/08/07 13:56:22;;;;;;;5.22;1.48;;;25.00;70.00;;;;;;4819103;29;87087;-70
2022/08/07 13:59:00;;;;;;;2.30;0.82;;;25.00;71.00;;;;;;4821765;29;86221;-70
2022/08/07 14:01:35;;;;;;;1.85;1.00;;;24.80;70.60;;;;;;4819160;29;88957;-70
2022/08/07 14:04:08;;;;;;;5.10;1.02;;;24.70;69.50;;;;;;4821244;29;88047;-70
2022/08/07 14:06:38;;;;;;;3.45;0.90;;;24.30;72.20;;;;;;4819881;29;88411;-70
2022/08/07 14:09:06;;;;;;;3.10;1.05;;;24.30;71.60;;;;;;4823358;29;87235;-74
2022/08/07 14:11:43;;;;;;;2.17;1.00;;;24.20;72.60;;;;;;4816854;29;87241;-69
2022/08/07 14:14:13;;;;;;;3.92;0.82;;;24.00;72.60;;;;;;4813460;29;87180;-71
2022/08/07 14:16:42;;;;;;;11.30;1.10;;;24.10;72.70;;;;;;4820251;29;87008;-69
2022/08/07 14:19:21;;;;;;;3.42;0.85;;;24.10;74.10;;;;;;4817676;29;87103;-71
2022/08/07 14:21:50;;;;;;;2.35;1.10;;;24.10;73.60;;;;;;4814825;29;87582;-75
2022/08/07 14:24:18;;;;;;;1.73;0.70;;;24.10;73.90;;;;;;4819947;29;87092;-70
2022/08/07 14:27:04;;;;;;;4.65;0.85;;;24.10;73.30;;;;;;4818817;29;87122;-70
2022/08/07 14:29:35;;;;;;;2.70;0.88;;;24.10;74.10;;;;;;4819751;29;87495;-70
2022/08/07 14:32:06;;;;;;;7.35;0.95;;;24.10;73.50;;;;;;4821147;29;89075;-70
2022/08/07 14:34:34;;;;;;;3.10;0.70;;;24.40;73.90;;;;;;4820696;29;88586;-70
2022/08/07 14:37:02;;;;;;;2.83;0.88;;;24.60;71.60;;;;;;4822521;29;86664;-69
2022/08/07 14:39:32;;;;;;;2.20;0.70;;;24.70;71.40;;;;;;4819105;29;87142;-71
2022/08/07 14:42:01;;;;;;;2.22;0.88;;;24.90;70.30;;;;;;4820132;29;88720;-71
2022/08/07 14:44:29;;;;;;;3.63;0.95;;;24.80;70.50;;;;;;4820649;29;87473;-70
2022/08/07 14:47:00;;;;;;;3.28;0.80;;;24.90;71.00;;;;;;4819916;29;87125;-72
2022/08/07 14:49:33;;;;;;;4.13;0.80;;;24.90;70.90;;;;;;4823579;29;87855;-70
2022/08/07 14:52:02;;;;;;;2.08;0.73;;;24.90;70.80;;;;;;4821489;29;87329;-72
2022/08/07 14:54:33;;;;;;;2.25;1.25;;;24.70;70.80;;;;;;4821080;29;87218;-70
2022/08/07 14:57:01;;;;;;;2.33;1.10;;;24.90;71.10;;;;;;4822088;29;87614;-71
2022/08/07 14:59:29;;;;;;;2.78;0.80;;;24.90;70.40;;;;;;4824127;29;87383;-73
2022/08/07 15:01:57;;;;;;;3.33;0.88;;;25.10;69.50;;;;;;4821923;29;88058;-69
2022/08/07 15:04:24;;;;;;;3.20;1.00;;;25.00;69.90;;;;;;4823079;29;87274;-71
2022/08/07 15:06:52;;;;;;;2.03;1.10;;;24.70;71.10;;;;;;4821780;29;86948;-71
2022/08/07 15:09:20;;;;;;;2.25;1.00;;;24.50;71.00;;;;;;4823233;29;88457;-69
2022/08/07 15:12:04;;;;;;;1.85;0.95;;;24.30;72.70;;;;;;4821470;29;87379;-70
2022/08/07 15:14:31;;;;;;;2.03;1.17;;;24.20;72.70;;;;;;4822608;29;86923;-71
2022/08/07 15:17:01;;;;;;;1.80;0.88;;;24.10;72.70;;;;;;4822056;29;86614;-70
2022/08/07 15:19:34;;;;;;;2.40;0.70;;;23.90;74.50;;;;;;4820067;29;87011;-71
2022/08/07 15:22:03;;;;;;;2.00;0.73;;;23.60;74.30;;;;;;4822700;29;89132;-73
2022/08/07 15:24:37;;;;;;;1.50;0.68;;;23.60;75.10;;;;;;4821459;29;88093;-71
2022/08/07 15:27:10;;;;;;;3.70;0.77;;;23.60;75.20;;;;;;4823039;29;86960;-71
2022/08/07 15:29:41;;;;;;;2.70;0.85;;;23.60;74.20;;;;;;4823294;29;87204;-70
2022/08/07 15:32:08;;;;;;;2.33;0.70;;;23.70;73.30;;;;;;4820477;29;87496;-69
2022/08/07 15:34:49;;;;;;;1.90;1.00;;;23.70;73.70;;;;;;4820971;29;87036;-70
2022/08/07 15:37:16;;;;;;;1.40;0.75;;;23.50;74.90;;;;;;4818519;29;87036;-71
2022/08/07 15:39:47;;;;;;;2.45;0.80;;;23.50;75.30;;;;;;4818991;29;86383;-69
2022/08/07 15:42:46;;;;;;;2.22;0.82;;;23.50;74.70;;;;;;4818559;29;87229;-70
2022/08/07 15:45:22;;;;;;;2.03;0.65;;;23.50;74.70;;;;;;4819521;29;86979;-73
2022/08/07 15:47:53;;;;;;;4.88;0.70;;;23.50;75.10;;;;;;4818728;29;88147;-70
2022/08/07 15:50:25;;;;;;;3.97;0.90;;;23.60;75.50;;;;;;4822282;29;87004;-72
2022/08/07 15:53:01;;;;;;;3.40;1.23;;;23.80;75.30;;;;;;4821373;29;87165;-70
2022/08/07 15:55:28;;;;;;;1.60;0.82;;;24.00;75.50;;;;;;4823033;29;87217;-69
2022/08/07 15:57:56;;;;;;;4.55;1.25;;;24.00;74.70;;;;;;4821882;29;86977;-71
2022/08/07 16:00:29;;;;;;;2.30;1.10;;;24.30;74.90;;;;;;4824426;29;87001;-70
2022/08/07 16:02:57;;;;;;;2.53;1.02;;;24.40;74.00;;;;;;4820067;29;87475;-69
2022/08/07 16:05:25;;;;;;;3.67;1.33;;;24.60;72.10;;;;;;4820045;29;87457;-69
2022/08/07 16:08:01;;;;;;;2.25;0.90;;;24.70;70.60;;;;;;4817427;29;87230;-71
2022/08/07 16:10:29;;;;;;;4.03;0.90;;;24.90;70.50;;;;;;4814835;29;87003;-71
2022/08/07 16:13:09;;;;;;;1.80;0.80;;;25.00;70.50;;;;;;4818098;29;88053;-70
2022/08/07 16:16:05;;;;;;;1.33;0.70;;;25.20;70.50;;;;;;4817061;29;87902;-70
2022/08/07 16:19:08;;;;;;;2.20;0.95;;;25.40;69.90;;;;;;4821638;29;86828;-69
2022/08/07 16:21:34;;;;;;;1.73;0.75;;;25.60;69.00;;;;;;4818062;29;87221;-70
2022/08/07 16:24:08;;;;;;;2.80;0.80;;;25.70;69.90;;;;;;4822762;29;87234;-69
2022/08/07 16:26:54;;;;;;;3.17;0.80;;;25.70;67.40;;;;;;4820084;29;87165;-69
2022/08/07 16:29:38;;;;;;;2.72;1.55;;;25.70;68.70;;;;;;4821675;29;87697;-70
2022/08/07 16:32:07;;;;;;;1.77;0.85;;;25.50;69.20;;;;;;4822850;29;86234;-71
2022/08/07 16:34:43;;;;;;;2.70;1.08;;;25.30;69.50;;;;;;4823343;29;89139;-70
2022/08/07 16:37:45;;;;;;;2.75;0.80;;;25.30;69.00;;;;;;4820233;29;87066;-70
2022/08/07 16:40:48;;;;;;;1.95;1.10;;;25.20;67.50;;;;;;4815976;29;88050;-69
2022/08/07 16:43:43;;;;;;;1.80;0.90;;;25.00;69.40;;;;;;4820166;29;87001;-72
2022/08/07 16:46:16;;;;;;;5.38;1.15;;;24.70;71.70;;;;;;4807096;29;87137;-70
2022/08/07 16:48:48;;;;;;;1.33;0.80;;;24.60;71.90;;;;;;4822023;29;87295;-71
2022/08/07 16:51:39;;;;;;;2.05;0.90;;;24.40;72.50;;;;;;4822414;29;87746;-71
2022/08/07 16:54:16;;;;;;;2.42;0.73;;;24.30;73.70;;;;;;4824315;29;88420;-70
2022/08/07 16:56:50;;;;;;;2.25;0.90;;;24.30;73.30;;;;;;4818924;29;87607;-72
2022/08/07 16:59:50;;;;;;;1.50;1.00;;;24.10;73.40;;;;;;4825553;29;86949;-71
2022/08/07 17:02:37;;;;;;;1.67;0.88;;;23.90;72.60;;;;;;4814861;29;87327;-72
2022/08/07 17:05:15;;;;;;;1.67;0.80;;;23.90;72.70;;;;;;4819516;29;87214;-73
2022/08/07 17:07:51;;;;;;;1.98;1.15;;;23.80;73.90;;;;;;4819969;29;89417;-70
2022/08/07 17:10:53;;;;;;;2.08;0.85;;;23.70;74.30;;;;;;4819312;29;88410;-70
2022/08/07 17:13:22;;;;;;;1.75;1.00;;;23.70;74.10;;;;;;4820685;29;87241;-72
2022/08/07 17:15:54;;;;;;;2.60;0.80;;;23.70;73.50;;;;;;4822517;29;87343;-70
2022/08/07 17:18:38;;;;;;;2.47;0.95;;;23.70;74.10;;;;;;4821575;29;87173;-70
2022/08/07 17:21:30;;;;;;;2.15;0.90;;;23.70;74.40;;;;;;4822175;29;87405;-71
2022/08/07 17:24:27;;;;;;;2.13;0.82;;;23.70;75.20;;;;;;4822274;29;87396;-70
2022/08/07 17:27:28;;;;;;;3.20;0.85;;;23.70;75.20;;;;;;4823938;29;86654;-71
2022/08/07 17:30:03;;;;;;;2.10;0.98;;;23.60;75.20;;;;;;4822321;29;87415;-70
2022/08/07 17:32:35;;;;;;;4.30;1.33;;;23.60;74.90;;;;;;4822542;29;87495;-71
2022/08/07 17:35:18;;;;;;;3.88;1.20;;;23.70;75.00;;;;;;4820882;29;87775;-73
2022/08/07 17:38:12;;;;;;;4.00;1.40;;;23.70;75.40;;;;;;4823970;29;86997;-71
2022/08/07 17:40:41;;;;;;;2.30;1.65;;;23.50;76.80;;;;;;4819420;29;87271;-70
2022/08/07 17:43:13;;;;;;;1.65;0.73;;;23.50;75.90;;;;;;4823272;29;87131;-71